Time;durP1;ratioP1;P1;durP2;ratioP2;P2;SDS_P1;SDS_P2;PMS_P1;PMS_P2;Temp;Humidity;BMP_temperature;BMP_pressure;BME280_temperature;BME280_humidity;BME280_pressure;Samples;Min_cycle;Max_cycle;Signal;HPM_P1;HPM_P2
2022/09/20 12:12:31;;;;;;;2.50;1.02;;;;;;;17.30;52.68;98595.28;5096634;27;21191;-94
2022/09/20 12:15:04;;;;;;;2.35;1.30;;;;;;;16.74;55.61;98589.47;4948143;28;20054;-90
2022/09/20 12:17:46;;;;;;;4.55;1.30;;;;;;;16.50;57.10;98603.66;4944041;28;20046;-92
2022/09/20 12:22:46;;;;;;;2.50;1.15;;;;;;;15.53;60.60;98596.44;4969428;28;20640;-92
2022/09/20 12:26:14;;;;;;;1.88;1.00;;;;;;;15.27;60.61;98597.47;4965408;28;20050;-92
2022/09/20 12:28:55;;;;;;;1.23;1.13;;;;;;;15.11;62.26;98605.94;4915283;28;20045;-92
2022/09/20 12:31:32;;;;;;;2.22;1.20;;;;;;;15.32;59.13;98603.94;4915540;28;20064;-92
2022/09/20 12:34:27;;;;;;;1.63;1.10;;;;;;;15.18;57.32;98612.00;4959333;28;20058;-94
2022/09/20 12:36:54;;;;;;;2.97;0.93;;;;;;;15.11;57.83;98605.13;4952921;28;20528;-93
2022/09/20 12:39:37;;;;;;;1.92;1.00;;;;;;;14.72;58.31;98597.31;4941119;28;20042;-93
2022/09/20 12:42:11;;;;;;;1.73;1.20;;;;;;;14.76;63.50;98608.28;4922247;28;707459;-94
2022/09/20 12:44:42;;;;;;;2.85;1.40;;;;;;;14.91;63.23;98607.94;4985557;28;20109;-93
2022/09/20 12:47:09;;;;;;;1.52;1.00;;;;;;;14.86;57.09;98600.66;4986157;28;20459;-94
2022/09/20 12:54:55;;;;;;;2.70;1.13;;;;;;;14.18;60.98;98579.34;5017764;27;20428;-93
2022/09/20 12:57:34;;;;;;;2.53;1.25;;;;;;;13.95;62.46;98584.31;5005672;28;20434;-93
2022/09/20 13:00:05;;;;;;;2.53;1.30;;;;;;;13.90;62.60;98596.28;5005882;28;20478;-89
2022/09/20 13:02:51;;;;;;;2.53;1.27;;;;;;;14.18;67.92;98603.88;5031880;28;20049;-89
2022/09/20 13:05:41;;;;;;;5.60;1.40;;;;;;;14.19;63.29;98602.88;5032895;28;20051;-88
2022/09/20 13:08:12;;;;;;;2.08;1.38;;;;;;;14.37;67.83;98604.00;5035649;28;20441;-89
2022/09/20 13:10:49;;;;;;;4.47;1.80;;;;;;;14.64;67.50;98600.22;5035323;28;20041;-88
2022/09/20 13:13:34;;;;;;;3.25;2.03;;;;;;;14.70;61.25;98604.66;5035982;28;20041;-88
2022/09/20 13:16:05;;;;;;;2.10;1.40;;;;;;;14.89;60.59;98591.50;5038505;28;20033;-89
2022/09/20 13:18:35;;;;;;;;;;;;;;;15.13;61.52;98582.78;5036213;28;20092;-89
2022/09/20 13:21:06;;;;;;;5.53;1.38;;;;;;;15.38;58.74;98568.72;5034303;28;20362;-88
2022/09/20 13:23:44;;;;;;;;;;;;;;;15.49;61.09;98586.50;5038379;28;20525;-89
2022/09/20 13:26:13;;;;;;;1.52;1.15;;;;;;;15.44;58.97;98589.00;5036817;28;20395;-89
2022/09/20 13:28:53;;;;;;;2.88;1.17;;;;;;;15.73;58.43;98588.31;5034160;28;20042;-88
2022/09/20 13:31:19;;;;;;;3.85;1.50;;;;;;;15.40;55.65;98572.75;5032438;28;20044;-87
2022/09/20 13:33:47;;;;;;;2.47;1.33;;;;;;;15.06;57.16;98589.16;5036711;28;20096;-88
2022/09/20 13:36:20;;;;;;;2.92;1.20;;;;;;;16.03;56.88;98572.50;5030629;28;20100;-89
2022/09/20 13:38:48;;;;;;;2.33;1.30;;;;;;;17.45;51.87;98582.34;5036948;28;20045;-87
2022/09/20 13:41:17;;;;;;;5.40;1.58;;;;;;;17.25;51.90;98580.06;5004565;28;20561;-89
2022/09/20 13:43:48;;;;;;;1.30;1.20;;;;;;;17.53;52.48;98575.91;5043650;28;415118;-89
2022/09/20 13:46:32;;;;;;;2.75;1.30;;;;;;;17.45;51.16;98585.00;5008648;27;20588;-88
2022/09/20 13:49:20;;;;;;;1.95;1.10;;;;;;;18.10;51.21;98566.22;5004455;28;20052;-89
2022/09/20 13:51:48;;;;;;;2.28;1.13;;;;;;;18.96;49.76;98566.16;5004426;28;20497;-88
2022/09/20 13:54:32;;;;;;;2.03;1.10;;;;;;;17.97;49.78;98571.00;4992899;28;20076;-88
2022/09/20 13:57:05;;;;;;;3.97;1.48;;;;;;;17.81;50.19;98583.97;4981780;28;20057;-89
2022/09/20 13:59:43;;;;;;;1.98;0.90;;;;;;;19.76;47.20;98568.34;5009915;28;20052;-88
2022/09/20 14:02:30;;;;;;;2.40;1.10;;;;;;;20.95;41.19;98571.97;4983141;28;20052;-88
2022/09/20 14:05:04;;;;;;;1.42;0.88;;;;;;;22.24;43.12;98564.38;4996193;27;20045;-88
2022/09/20 14:07:35;;;;;;;3.03;1.10;;;;;;;22.28;38.20;98559.34;5041766;28;20042;-87
2022/09/20 14:10:03;;;;;;;2.47;0.85;;;;;;;21.82;40.94;98561.81;4980825;28;20054;-88
2022/09/20 14:12:32;;;;;;;2.35;0.85;;;;;;;20.48;43.24;98564.63;4996290;28;20056;-88
2022/09/20 14:15:07;;;;;;;2.95;0.82;;;;;;;19.37;42.27;98569.38;4987986;28;20046;-88
2022/09/20 14:17:35;;;;;;;1.52;0.80;;;;;;;19.28;45.14;98576.19;5012974;28;20052;-88
2022/09/20 14:20:04;;;;;;;2.03;0.77;;;;;;;20.32;41.88;98568.16;5007584;28;20501;-87
2022/09/20 14:22:32;;;;;;;1.02;0.60;;;;;;;20.53;42.97;98571.88;5010116;28;20071;-88
2022/09/20 14:25:24;;;;;;;2.17;0.77;;;;;;;20.04;39.44;98575.34;4994777;28;20038;-88
2022/09/20 14:28:18;;;;;;;1.00;0.80;;;;;;;19.10;45.94;98572.72;5000836;28;20057;-88
2022/09/20 14:30:47;;;;;;;1.45;0.70;;;;;;;18.91;43.88;98572.19;5002214;28;20046;-89
2022/09/20 14:33:20;;;;;;;2.97;1.00;;;;;;;18.90;44.69;98577.75;5024011;28;21032;-89
2022/09/20 14:35:51;;;;;;;1.25;0.80;;;;;;;18.78;42.20;98572.50;5014235;28;20041;-88
2022/09/20 14:38:25;;;;;;;1.08;0.68;;;;;;;18.95;43.14;98573.31;5010462;28;20041;-88
2022/09/20 14:40:52;;;;;;;3.13;0.90;;;;;;;18.76;45.28;98579.09;5024920;28;20061;-89
2022/09/20 14:43:32;;;;;;;1.73;0.90;;;;;;;18.44;45.78;98571.63;5016076;28;20053;-89
2022/09/20 14:46:16;;;;;;;2.13;0.77;;;;;;;17.84;51.69;98580.84;5016963;28;20038;-89
2022/09/20 14:48:44;;;;;;;1.20;0.63;;;;;;;17.19;50.09;98580.97;4987588;28;938182;-88
2022/09/20 14:51:39;;;;;;;1.55;0.85;;;;;;;16.75;51.93;98591.06;5016844;28;20147;-88
2022/09/20 14:54:07;;;;;;;1.40;0.80;;;;;;;16.48;55.22;98593.25;5029670;28;20051;-88
2022/09/20 14:56:39;;;;;;;2.85;0.80;;;;;;;16.13;56.17;98593.09;5031699;28;20397;-89
2022/09/20 14:59:58;;;;;;;1.17;0.88;;;;;;;15.82;58.00;98596.75;5002779;28;21252;-87
2022/09/20 15:02:26;;;;;;;1.77;0.85;;;;;;;15.53;58.22;98595.59;4923027;28;1889626;-87
2022/09/20 15:05:26;;;;;;;2.00;0.93;;;;;;;15.24;60.01;98599.75;5000550;28;341844;-87
2022/09/20 15:07:57;;;;;;;2.95;1.00;;;;;;;15.03;61.37;98602.78;4982379;28;20048;-88
2022/09/20 15:12:20;;;;;;;2.30;1.00;;;;;;;14.86;63.19;98591.94;5016140;28;20737;-88
2022/09/20 15:14:47;;;;;;;1.83;1.20;;;;;;;14.86;65.87;98613.06;5026463;28;20034;-87
2022/09/20 15:17:19;;;;;;;1.17;1.08;;;;;;;14.77;63.79;98611.72;5021686;28;20046;-87
2022/09/20 15:19:48;;;;;;;1.95;1.10;;;;;;;14.79;64.91;98610.47;4968484;28;20056;-87
2022/09/20 15:25:36;;;;;;;1.88;0.93;;;;;;;14.51;63.59;98610.84;5035366;28;20632;-87
2022/09/20 15:30:22;;;;;;;1.45;0.93;;;;;;;14.45;64.15;98612.50;5003082;27;20711;-88
2022/09/20 15:32:51;;;;;;;1.77;0.90;;;;;;;14.38;62.98;98616.16;4972832;28;20039;-87
2022/09/20 15:35:19;;;;;;;2.25;1.00;;;;;;;14.29;62.96;98612.97;4967062;28;20519;-88
2022/09/20 15:37:47;;;;;;;2.38;0.80;;;;;;;14.28;65.40;98610.56;4977485;28;20512;-87
2022/09/20 15:41:11;;;;;;;0.95;0.80;;;;;;;14.16;64.67;98616.50;5077310;27;20217;-87
2022/09/20 15:43:42;;;;;;;1.88;0.98;;;;;;;14.06;66.54;98613.47;5068808;28;20048;-87
2022/09/20 15:46:26;;;;;;;3.67;1.00;;;;;;;14.04;64.69;98626.06;5057907;28;20407;-88
2022/09/20 15:49:20;;;;;;;1.95;0.95;;;;;;;13.91;63.93;98615.53;4991812;28;20045;-87
2022/09/20 15:51:49;;;;;;;0.65;0.63;;;;;;;13.87;65.81;98620.44;5013788;28;20056;-88
2022/09/20 15:54:18;;;;;;;2.70;0.80;;;;;;;13.74;66.76;98631.03;4826293;28;20061;-88
2022/09/20 15:58:24;;;;;;;1.50;1.00;;;;;;;13.45;63.57;98637.56;5037536;27;20947;-93
2022/09/20 16:00:51;;;;;;;2.75;0.90;;;;;;;13.46;66.58;98638.38;5026392;28;20128;-92
2022/09/20 16:03:17;;;;;;;1.92;0.80;;;;;;;13.37;67.12;98641.22;5027346;28;20041;-91
2022/09/20 16:05:48;;;;;;;3.10;0.90;;;;;;;13.31;64.47;98646.47;5033035;28;20133;-92
2022/09/20 16:08:17;;;;;;;1.45;1.00;;;;;;;13.25;67.84;98647.28;5005560;28;20075;-92
2022/09/20 16:10:57;;;;;;;1.48;0.73;;;;;;;13.35;66.05;98645.88;5022981;28;20508;-91
2022/09/20 16:13:25;;;;;;;1.15;0.73;;;;;;;13.51;67.29;98651.75;5026502;28;20045;-92
2022/09/20 16:15:57;;;;;;;0.82;0.68;;;;;;;13.78;67.06;98652.50;5024216;28;20045;-92
2022/09/20 16:21:19;;;;;;;1.13;0.80;;;;;;;14.26;64.93;98654.78;4841990;28;4458236;-92
2022/09/20 16:24:01;;;;;;;1.10;0.70;;;;;;;14.26;61.52;98670.63;5028173;28;20041;-93
2022/09/20 16:26:30;;;;;;;0.75;0.65;;;;;;;14.03;61.37;98669.25;5039341;28;20033;-93
2022/09/20 16:28:59;;;;;;;0.73;0.73;;;;;;;13.92;61.45;98677.84;5060522;28;20053;-93
2022/09/20 16:31:49;;;;;;;1.42;0.70;;;;;;;13.84;62.20;98685.94;5039382;28;20404;-93
2022/09/20 16:35:26;;;;;;;0.80;0.80;;;;;;;13.72;66.76;98696.31;5031462;28;20905;-88
2022/09/20 16:38:15;;;;;;;1.38;0.80;;;;;;;13.53;66.30;98692.69;5028151;28;20049;-87
2022/09/20 16:41:05;;;;;;;1.10;0.70;;;;;;;13.45;66.45;98700.81;5028308;28;20058;-89
2022/09/20 16:43:36;;;;;;;1.83;0.90;;;;;;;13.27;69.51;98708.50;5022830;28;20060;-87
2022/09/20 16:46:04;;;;;;;1.00;0.80;;;;;;;12.90;68.70;98701.94;5026258;28;20505;-87
2022/09/20 16:48:32;;;;;;;3.70;1.13;;;;;;;12.38;73.80;98693.69;5018931;28;20034;-85
2022/09/20 16:51:23;;;;;;;0.90;0.90;;;;;;;12.26;74.48;98711.03;5022964;28;20056;-85
2022/09/20 16:54:16;;;;;;;2.00;0.90;;;;;;;11.99;75.63;98710.88;5016985;28;20045;-86
2022/09/20 16:57:04;;;;;;;1.77;0.88;;;;;;;11.85;76.02;98713.63;5015489;28;20416;-86
2022/09/20 16:59:54;;;;;;;2.47;1.20;;;;;;;11.78;79.82;98705.66;5047131;28;20053;-86
2022/09/20 17:02:42;;;;;;;2.90;1.20;;;;;;;11.74;81.81;98701.78;5049564;28;20055;-86
2022/09/20 17:05:35;;;;;;;1.40;1.00;;;;;;;11.82;82.26;98712.22;5032333;28;20046;-85
2022/09/20 17:08:22;;;;;;;2.15;1.13;;;;;;;11.81;81.53;98713.19;5055505;28;20041;-85
2022/09/20 17:11:15;;;;;;;2.58;1.20;;;;;;;11.88;81.80;98711.44;5040230;28;20056;-85
2022/09/20 17:14:05;;;;;;;2.08;1.20;;;;;;;11.85;81.00;98721.50;5048611;28;20408;-86
2022/09/20 17:16:52;;;;;;;2.67;1.30;;;;;;;11.78;81.48;98713.56;5038680;28;20053;-85
2022/09/20 17:19:41;;;;;;;1.45;1.30;;;;;;;11.75;81.89;98719.19;5047012;28;20049;-85
2022/09/20 17:22:28;;;;;;;2.78;1.48;;;;;;;11.47;80.45;98711.31;5034991;28;20052;-92
2022/09/20 17:25:16;;;;;;;2.28;1.50;;;;;;;11.42;82.25;98719.75;5044685;28;20052;-92
2022/09/20 17:28:02;;;;;;;1.35;1.10;;;;;;;11.19;82.58;98713.88;5031726;28;20080;-92
2022/09/20 17:30:31;;;;;;;2.40;2.05;;;;;;;11.17;83.54;98729.03;5025841;28;20717;-93
2022/09/20 17:33:19;;;;;;;4.20;3.72;;;;;;;11.05;82.68;98725.28;5037827;28;20505;-91
2022/09/20 17:36:12;;;;;;;1.75;1.13;;;;;;;10.94;82.48;98740.50;5060305;28;20496;-92
2022/09/20 17:39:01;;;;;;;1.20;1.05;;;;;;;10.73;81.96;98740.47;5063661;28;20585;-92
2022/09/20 17:41:51;;;;;;;2.60;1.25;;;;;;;10.77;84.72;98741.72;5056376;28;20040;-92
2022/09/20 17:44:19;;;;;;;2.42;2.15;;;;;;;10.73;85.55;98740.47;5061246;28;20043;-92
2022/09/20 17:47:09;;;;;;;4.57;2.67;;;;;;;10.83;85.99;98742.81;5056532;28;20045;-92
2022/09/20 17:49:57;;;;;;;4.18;3.75;;;;;;;10.85;85.11;98753.91;5028648;28;20057;-92
2022/09/20 17:52:44;;;;;;;4.45;3.50;;;;;;;10.80;84.84;98764.19;5032438;28;20057;-92
2022/09/20 17:55:33;;;;;;;3.05;2.72;;;;;;;10.72;84.62;98762.47;5031578;28;20055;-92
2022/09/20 17:58:21;;;;;;;3.75;2.40;;;;;;;10.62;85.27;98760.13;5031482;28;20508;-92
2022/09/20 18:01:17;;;;;;;4.95;2.55;;;;;;;10.56;85.49;98754.81;5028890;28;20051;-92
2022/09/20 18:04:06;;;;;;;2.40;2.20;;;;;;;10.56;85.47;98752.19;5037136;28;20051;-92
2022/09/20 18:06:43;;;;;;;2.72;2.10;;;;;;;10.34;86.53;98751.31;5044132;28;20049;-92
2022/09/20 18:09:31;;;;;;;3.60;2.55;;;;;;;10.34;86.74;98767.84;5040112;28;20413;-92
2022/09/20 18:11:58;;;;;;;5.10;2.67;;;;;;;10.35;86.95;98758.97;5015827;28;20148;-92
2022/09/20 18:14:28;;;;;;;2.50;2.30;;;;;;;10.45;86.97;98767.38;5048597;28;20059;-92
2022/09/20 18:17:16;;;;;;;3.45;2.75;;;;;;;10.35;86.31;98771.28;4997525;28;20054;-93
2022/09/20 18:20:04;;;;;;;3.20;2.28;;;;;;;10.38;86.75;98774.34;5017870;28;20045;-92
2022/09/20 18:22:34;;;;;;;2.80;2.15;;;;;;;10.30;86.83;98766.56;5031977;28;20033;-92
2022/09/20 18:25:02;;;;;;;3.85;1.90;;;;;;;10.41;86.50;98778.41;5028861;28;20042;-92
2022/09/20 18:27:49;;;;;;;2.08;1.80;;;;;;;10.34;86.15;98777.53;5016044;28;20050;-92
2022/09/20 18:30:38;;;;;;;2.70;1.60;;;;;;;10.43;86.54;98806.09;5045062;28;20053;-92
2022/09/20 18:33:26;;;;;;;2.45;1.90;;;;;;;10.40;86.16;98788.09;5031627;28;20057;-92
2022/09/20 18:36:15;;;;;;;2.75;2.35;;;;;;;10.42;86.35;98790.53;5026132;28;20042;-92
2022/09/20 18:39:03;;;;;;;3.90;3.03;;;;;;;10.37;85.44;98809.41;5031612;28;20049;-92
2022/09/20 18:41:34;;;;;;;6.63;4.05;;;;;;;10.29;86.14;98809.50;5024417;28;20049;-92
2022/09/20 18:44:03;;;;;;;;;;;;;;;10.21;86.96;98804.34;5051379;28;20519;-91
2022/09/20 18:46:52;;;;;;;4.95;3.30;;;;;;;10.24;86.89;98809.25;5020268;28;19943;-91
2022/09/20 18:49:39;;;;;;;4.10;3.10;;;;;;;10.22;86.17;98813.00;5028024;28;20050;-91
2022/09/20 18:52:09;;;;;;;3.45;2.80;;;;;;;10.13;86.16;98809.66;5032496;28;20038;-91
2022/09/20 18:54:37;;;;;;;4.15;3.05;;;;;;;10.06;86.50;98798.25;5031367;28;20040;-92
2022/09/20 18:57:25;;;;;;;4.53;2.60;;;;;;;10.13;86.55;98817.50;5028069;28;20672;-92
2022/09/20 19:00:14;;;;;;;4.30;2.88;;;;;;;10.08;86.69;98814.63;5030148;28;20053;-91
2022/09/20 19:03:11;;;;;;;3.78;3.05;;;;;;;10.01;87.24;98813.69;5022929;28;20406;-91
2022/09/20 19:06:07;;;;;;;4.13;2.80;;;;;;;10.05;87.51;98815.78;5030062;28;20506;-92
2022/09/20 19:09:13;;;;;;;4.38;3.22;;;;;;;10.08;87.16;98814.63;5028671;28;20042;-91
2022/09/20 19:11:54;;;;;;;3.90;2.70;;;;;;;10.12;87.07;98815.88;5031860;28;20049;-92
2022/09/20 19:15:03;;;;;;;2.40;2.03;;;;;;;10.11;86.76;98824.75;5029157;28;20291;-93
2022/09/20 19:18:11;;;;;;;4.35;2.55;;;;;;;9.87;87.59;98829.22;5023986;28;20045;-92
2022/09/20 19:21:22;;;;;;;4.30;3.25;;;;;;;9.83;87.87;98834.97;5028691;28;20048;-92
2022/09/20 19:24:16;;;;;;;2.65;2.22;;;;;;;9.84;87.74;98831.38;5014426;28;20033;-92
2022/09/20 19:27:04;;;;;;;3.97;2.80;;;;;;;9.89;88.18;98832.47;5028542;28;20060;-92
2022/09/20 19:29:53;;;;;;;3.47;2.95;;;;;;;9.93;88.06;98835.56;5030843;28;20060;-92
2022/09/20 19:32:42;;;;;;;4.03;3.63;;;;;;;9.98;87.89;98840.28;5029786;28;20044;-92
2022/09/20 19:35:38;;;;;;;4.18;3.50;;;;;;;9.98;87.63;98832.41;5026564;28;20037;-92
2022/09/20 19:39:18;;;;;;;6.15;3.70;;;;;;;9.99;87.66;98837.47;5029296;28;20053;-92
2022/09/20 19:42:26;;;;;;;3.47;2.90;;;;;;;10.03;87.03;98853.66;5029406;28;20412;-91
2022/09/20 19:45:42;;;;;;;3.75;2.30;;;;;;;10.08;87.73;98861.81;5029971;28;20659;-91
2022/09/20 19:48:39;;;;;;;5.88;2.78;;;;;;;10.16;88.67;98870.41;5039619;28;20051;-92
2022/09/20 19:51:11;;;;;;;5.32;3.00;;;;;;;10.08;87.74;98861.81;5047145;28;20041;-93
2022/09/20 19:54:02;;;;;;;4.63;3.60;;;;;;;9.87;88.62;98858.03;5032875;28;20060;-92
2022/09/20 19:56:55;;;;;;;8.40;4.35;;;;;;;10.02;88.43;98873.81;5044715;28;20043;-92
2022/09/20 19:59:43;;;;;;;7.32;4.20;;;;;;;10.00;88.22;98874.97;5010685;28;20050;-92
2022/09/20 20:02:11;;;;;;;7.75;4.07;;;;;;;9.99;88.49;98874.16;5047704;28;20053;-92
2022/09/20 20:04:59;;;;;;;5.28;4.40;;;;;;;9.94;87.90;98871.25;5029622;28;20048;-92
2022/09/20 20:08:24;;;;;;;6.22;4.20;;;;;;;9.99;88.02;98881.22;5029296;28;20068;-91
2022/09/20 20:11:45;;;;;;;4.32;3.30;;;;;;;9.92;87.65;98884.53;5029461;28;20105;-92
2022/09/20 20:14:39;;;;;;;5.87;3.67;;;;;;;10.02;87.89;98884.28;4983284;28;20049;-92
2022/09/20 20:17:40;;;;;;;3.53;2.85;;;;;;;10.08;88.04;98888.84;5027402;28;20374;-92
2022/09/20 20:20:41;;;;;;;3.38;3.08;;;;;;;10.05;87.17;98891.78;5050303;28;20497;-92
2022/09/20 20:23:56;;;;;;;5.82;3.25;;;;;;;9.95;86.30;98887.78;5021451;28;20050;-92
2022/09/20 20:26:44;;;;;;;3.60;2.97;;;;;;;9.69;87.29;98888.97;5016689;28;20044;-92
2022/09/20 20:29:32;;;;;;;4.25;3.05;;;;;;;9.49;88.12;98891.22;5035690;28;20055;-92
2022/09/20 20:31:59;;;;;;;4.50;3.45;;;;;;;9.36;88.64;98888.38;5029435;28;20041;-92
2022/09/20 20:34:47;;;;;;;8.68;4.20;;;;;;;9.37;89.43;98890.00;5029268;28;20068;-91
2022/09/20 20:37:34;;;;;;;4.82;3.33;;;;;;;9.26;89.25;98891.19;5026554;28;20038;-91
2022/09/20 20:40:02;;;;;;;5.65;3.47;;;;;;;9.11;89.64;98891.06;5030193;28;20048;-91
2022/09/20 20:42:30;;;;;;;5.65;3.33;;;;;;;9.16;90.45;98898.41;5008609;28;20046;-91
2022/09/20 20:44:57;;;;;;;5.53;3.38;;;;;;;9.10;90.39;98888.63;5029954;28;20048;-92
2022/09/20 20:47:47;;;;;;;4.85;3.45;;;;;;;9.23;90.59;98898.56;5038013;28;20419;-92
2022/09/20 20:50:35;;;;;;;4.95;3.50;;;;;;;9.26;90.33;98893.81;5026431;28;20424;-92
2022/09/20 20:53:03;;;;;;;4.47;3.47;;;;;;;9.21;89.83;98883.03;5023845;28;20037;-92
2022/09/20 20:55:31;;;;;;;3.85;3.30;;;;;;;9.28;89.90;98904.09;5048933;28;20041;-91
2022/09/20 20:57:58;;;;;;;4.63;3.25;;;;;;;9.28;90.13;98898.84;5045413;28;20041;-92
2022/09/20 21:00:27;;;;;;;5.22;3.70;;;;;;;9.30;90.08;98895.09;5033364;28;20059;-92
2022/09/20 21:03:14;;;;;;;6.78;3.83;;;;;;;9.36;90.11;98899.66;5021907;28;20041;-92
2022/09/20 21:05:42;;;;;;;5.45;3.60;;;;;;;9.41;89.51;98909.59;5029485;28;20042;-92
2022/09/20 21:08:10;;;;;;;3.70;3.33;;;;;;;9.48;89.33;98901.88;5021707;28;20052;-92
2022/09/20 21:10:37;;;;;;;6.75;5.22;;;;;;;9.51;88.55;98912.00;5036835;28;20416;-93
2022/09/20 21:13:25;;;;;;;5.45;4.32;;;;;;;9.51;87.87;98919.84;5030903;28;20057;-91
2022/09/20 21:16:17;;;;;;;7.68;4.90;;;;;;;9.50;86.86;98907.75;5026686;28;20048;-86
2022/09/20 21:18:47;;;;;;;4.85;3.97;;;;;;;9.55;86.59;98915.91;5030131;28;20045;-85
2022/09/20 21:21:39;;;;;;;8.00;4.20;;;;;;;9.50;86.51;98915.59;5036630;28;20076;-85
2022/09/20 21:24:26;;;;;;;5.70;4.28;;;;;;;9.48;87.38;98920.22;5031012;28;20128;-87
2022/09/20 21:27:14;;;;;;;5.20;4.18;;;;;;;9.49;87.02;98924.44;5017998;28;20057;-86
2022/09/20 21:30:03;;;;;;;6.30;4.25;;;;;;;9.54;86.48;98919.53;5051287;28;20415;-86
2022/09/20 21:32:54;;;;;;;5.93;4.53;;;;;;;9.57;86.56;98927.00;5023008;28;20749;-85
2022/09/20 21:35:42;;;;;;;6.90;4.97;;;;;;;9.53;86.00;98925.72;5036073;28;20044;-85
2022/09/20 21:38:33;;;;;;;5.75;4.93;;;;;;;9.49;85.81;98925.25;5043467;28;20052;-86
2022/09/20 21:41:26;;;;;;;;;;;;;;;9.52;85.60;98934.56;5042388;28;20440;-86
2022/09/20 21:44:13;;;;;;;5.00;4.07;;;;;;;9.37;85.20;98932.69;5033417;28;19921;-87
2022/09/20 21:46:41;;;;;;;5.72;4.10;;;;;;;9.26;85.04;98935.69;5042277;28;20047;-86
2022/09/20 21:49:11;;;;;;;5.18;3.88;;;;;;;9.13;84.99;98939.84;5048580;28;20471;-86
2022/09/20 21:51:58;;;;;;;4.80;4.13;;;;;;;8.93;85.67;98934.16;5048938;28;20604;-86
2022/09/20 21:54:46;;;;;;;5.25;4.50;;;;;;;9.03;86.52;98945.25;5010517;28;20045;-87
2022/09/20 21:57:34;;;;;;;4.75;4.13;;;;;;;9.06;86.95;98952.78;5038939;28;20064;-87
2022/09/20 22:00:01;;;;;;;5.00;3.88;;;;;;;9.04;86.83;98936.41;5015945;28;20046;-87
2022/09/20 22:02:29;;;;;;;5.35;4.50;;;;;;;9.06;86.32;98944.94;5040765;28;20359;-86
2022/09/20 22:05:16;;;;;;;5.20;4.30;;;;;;;8.89;85.37;98935.50;5041155;28;20707;-87
2022/09/20 22:08:04;;;;;;;5.95;4.10;;;;;;;8.67;86.79;98947.47;5025649;28;20045;-87
2022/09/20 22:10:56;;;;;;;6.03;4.47;;;;;;;8.31;88.18;98938.16;5040431;28;20044;-86
2022/09/20 22:13:24;;;;;;;5.70;4.32;;;;;;;8.38;88.93;98946.19;5016442;28;20048;-87
2022/09/20 22:15:52;;;;;;;6.97;4.10;;;;;;;8.44;89.11;98935.09;5032145;28;20060;-86
2022/09/20 22:18:19;;;;;;;4.75;3.92;;;;;;;8.64;89.23;98940.78;5046082;28;20386;-87
2022/09/20 22:21:14;;;;;;;12.80;5.50;;;;;;;8.62;87.65;98942.75;5044699;28;20051;-87
2022/09/20 22:24:06;;;;;;;6.00;4.30;;;;;;;8.58;88.42;98937.03;5041709;28;20053;-86
2022/09/20 22:26:54;;;;;;;5.45;4.50;;;;;;;8.60;87.33;98939.50;5020431;28;20048;-87
2022/09/20 22:29:42;;;;;;;6.72;4.75;;;;;;;8.65;86.93;98942.41;5033276;28;20516;-87
2022/09/20 22:32:13;;;;;;;7.10;5.05;;;;;;;8.64;86.54;98937.38;5049192;28;20109;-87
2022/09/20 22:35:01;;;;;;;7.18;5.07;;;;;;;8.67;86.82;98929.97;5040842;28;20064;-87
2022/09/20 22:37:50;;;;;;;6.38;5.15;;;;;;;8.68;86.65;98933.41;5036799;28;20043;-87
2022/09/20 22:40:38;;;;;;;6.03;4.82;;;;;;;8.50;85.41;98939.66;5033842;28;20400;-87
2022/09/20 22:43:27;;;;;;;6.25;4.50;;;;;;;8.11;85.94;98941.28;5040858;28;20576;-86
2022/09/20 22:46:21;;;;;;;5.40;4.45;;;;;;;7.93;87.60;98947.47;5049095;28;20045;-86
2022/09/20 22:49:09;;;;;;;9.48;4.57;;;;;;;7.87;88.71;98942.91;5050222;28;20520;-92
2022/09/20 22:51:57;;;;;;;41.13;5.63;;;;;;;7.90;88.38;98939.13;5032693;28;20524;-91
2022/09/20 22:54:45;;;;;;;7.13;4.03;;;;;;;8.01;88.73;98938.81;5001183;28;20056;-91
2022/09/20 22:57:13;;;;;;;12.93;4.38;;;;;;;8.02;87.66;98941.28;5012954;28;20049;-91
2022/09/20 22:59:41;;;;;;;9.15;3.85;;;;;;;7.97;87.47;98945.34;5040172;28;20053;-92
2022/09/20 23:02:08;;;;;;;15.38;4.30;;;;;;;7.70;87.32;98949.88;5042270;28;20042;-92
2022/09/20 23:04:56;;;;;;;6.70;3.75;;;;;;;7.57;89.08;98952.16;5033666;28;20060;-91
2022/09/20 23:07:47;;;;;;;11.00;3.97;;;;;;;7.70;88.83;98956.91;5039458;28;20045;-91
2022/09/20 23:10:15;;;;;;;11.70;3.80;;;;;;;7.71;88.96;98954.13;5032740;28;20049;-91
2022/09/20 23:12:42;;;;;;;4.60;4.05;;;;;;;7.76;89.18;98956.28;5030613;28;20060;-91
2022/09/20 23:15:30;;;;;;;3.60;3.20;;;;;;;7.83;88.38;98953.81;5031765;28;20534;-91
2022/09/20 23:18:18;;;;;;;3.80;3.35;;;;;;;7.98;88.71;98960.88;5026026;28;20052;-91
2022/09/20 23:20:46;;;;;;;5.28;3.33;;;;;;;8.04;88.44;98956.81;5029185;28;20054;-91
2022/09/20 23:23:22;;;;;;;4.45;3.50;;;;;;;8.12;87.79;98969.88;5013854;28;20038;-91
2022/09/20 23:25:49;;;;;;;4.13;3.70;;;;;;;8.08;87.24;98968.53;5009162;28;20068;-91
2022/09/20 23:28:41;;;;;;;4.53;3.72;;;;;;;7.97;85.60;98961.03;5030270;28;20038;-91
2022/09/20 23:31:33;;;;;;;4.63;3.42;;;;;;;8.01;86.55;98960.53;5039960;28;20049;-92
2022/09/20 23:34:21;;;;;;;4.22;3.63;;;;;;;8.02;86.69;98956.13;5014819;28;20053;-91
2022/09/20 23:36:48;;;;;;;5.10;4.30;;;;;;;8.16;86.50;98965.97;5029592;28;20046;-91
2022/09/20 23:39:16;;;;;;;4.70;4.25;;;;;;;8.07;86.28;98953.03;5033582;28;20045;-91
2022/09/20 23:41:43;;;;;;;5.72;3.90;;;;;;;8.00;84.77;98955.50;5050970;28;20048;-91
2022/09/20 23:44:36;;;;;;;4.50;3.78;;;;;;;7.74;85.23;98953.81;5017671;28;20036;-91
2022/09/20 23:47:24;;;;;;;5.25;4.20;;;;;;;7.56;85.91;98958.34;5032757;28;20056;-91
2022/09/20 23:50:11;;;;;;;4.25;3.85;;;;;;;7.58;86.96;98959.00;5033030;28;20049;-90
2022/09/20 23:52:40;;;;;;;5.18;3.90;;;;;;;7.65;87.00;98960.00;5033012;28;20124;-91
2022/09/20 23:55:07;;;;;;;4.32;3.63;;;;;;;7.71;85.91;98951.53;5031460;28;20052;-90
2022/09/20 23:57:56;;;;;;;4.63;3.80;;;;;;;7.72;86.09;98955.75;5032761;28;20049;-90
